createdAt,value
2023-02-22T00:00:44.642Z,15.45
2023-02-22T00:03:26.998Z,14.48
2023-02-22T00:05:58.551Z,13.18
2023-02-22T00:08:30.698Z,12.27
2023-02-22T00:10:58.391Z,11.25
2023-02-22T00:13:25.305Z,15.65
2023-02-22T00:15:51.777Z,11.23
2023-02-22T00:18:19.331Z,14.90
2023-02-22T00:20:46.025Z,12.25
2023-02-22T00:25:47.120Z,15.50
2023-02-22T00:28:15.316Z,13.55
2023-02-22T00:30:44.783Z,13.13
2023-02-22T00:33:13.277Z,10.82
2023-02-22T00:35:40.013Z,12.07
2023-02-22T00:38:07.034Z,14.15
2023-02-22T00:40:35.416Z,14.30
2023-02-22T00:43:04.983Z,12.07
2023-02-22T00:45:33.572Z,11.25
2023-02-22T00:48:00.936Z,12.63
2023-02-22T00:50:29.346Z,11.02
2023-02-22T00:52:57.733Z,11.63
2023-02-22T00:55:29.957Z,11.80
2023-02-22T00:57:57.414Z,10.23
2023-02-22T01:00:28.358Z,13.52
2023-02-22T01:02:56.946Z,11.90
2023-02-22T01:05:28.951Z,12.80
2023-02-22T01:07:57.520Z,11.27
2023-02-22T01:10:27.029Z,11.90
2023-02-22T01:12:55.231Z,13.80
2023-02-22T01:15:23.961Z,15.27
2023-02-22T01:17:53.648Z,11.60
2023-02-22T01:20:22.937Z,11.10
2023-02-22T01:22:51.688Z,13.57
2023-02-22T01:25:21.227Z,11.25
2023-02-22T01:27:48.277Z,11.48
2023-02-22T01:30:15.225Z,9.60
2023-02-22T01:32:42.746Z,10.43
2023-02-22T01:35:14.110Z,10.68
2023-02-22T01:37:41.364Z,10.63
2023-02-22T01:40:11.156Z,11.35
2023-02-22T01:42:37.683Z,10.40
2023-02-22T01:45:35.043Z,9.65
2023-02-22T01:48:39.204Z,9.65
2023-02-22T01:51:11.512Z,10.27
2023-02-22T01:54:02.637Z,11.25
2023-02-22T01:56:32.765Z,12.30
2023-02-22T01:59:08.785Z,11.75
2023-02-22T02:01:37.303Z,10.55
2023-02-22T02:04:09.976Z,9.23
2023-02-22T02:06:37.870Z,10.52
2023-02-22T02:09:17.392Z,9.88
2023-02-22T02:11:44.341Z,10.20
2023-02-22T02:14:11.896Z,8.90
2023-02-22T02:16:44.924Z,11.35
2023-02-22T02:19:49.579Z,9.70
2023-02-22T02:22:42.651Z,9.82
2023-02-22T02:25:18.274Z,11.57
2023-02-22T02:28:05.310Z,10.23
2023-02-22T02:30:48.867Z,11.13
2023-02-22T02:33:26.080Z,11.68
2023-02-22T02:38:40.214Z,9.50
2023-02-22T02:41:17.348Z,10.70
2023-02-22T02:46:29.857Z,9.70
2023-02-22T02:49:01.166Z,9.32
2023-02-22T02:51:36.695Z,10.00
2023-02-22T02:54:04.341Z,11.30
2023-02-22T02:56:31.212Z,10.57
2023-02-22T02:58:57.682Z,9.63
2023-02-22T03:01:45.232Z,9.68
2023-02-22T03:04:20.944Z,10.15
2023-02-22T03:07:28.060Z,9.13
2023-02-22T03:10:21.459Z,10.93
2023-02-22T03:13:03.115Z,10.05
2023-02-22T03:15:46.810Z,12.13
2023-02-22T03:18:22.921Z,9.52
2023-02-22T03:21:16.767Z,10.32
2023-02-22T03:24:07.239Z,9.07
2023-02-22T03:26:43.580Z,8.65
2023-02-22T03:29:13.280Z,9.73
2023-02-22T03:31:46.349Z,8.75
2023-02-22T03:34:22.985Z,9.50
2023-02-22T03:36:56.521Z,9.07
2023-02-22T03:39:31.013Z,9.77
2023-02-22T03:42:07.689Z,10.60
2023-02-22T03:44:40.302Z,10.68
2023-02-22T03:47:12.203Z,7.57
2023-02-22T03:49:57.577Z,6.63
2023-02-22T03:52:24.558Z,7.45
2023-02-22T03:54:53.814Z,8.82
2023-02-22T03:57:33.899Z,8.02
2023-02-22T04:00:00.766Z,8.57
2023-02-22T04:02:27.320Z,8.98
2023-02-22T04:04:53.965Z,9.25
2023-02-22T04:09:46.895Z,7.97
2023-02-22T04:12:13.408Z,8.20
2023-02-22T04:14:39.861Z,8.50
2023-02-22T04:17:06.378Z,8.80
2023-02-22T04:19:32.870Z,8.73
2023-02-22T04:21:59.344Z,8.88
2023-02-22T04:24:25.882Z,9.52
2023-02-22T04:26:52.975Z,7.45
2023-02-22T04:29:19.476Z,7.97
2023-02-22T04:31:46.052Z,8.40
2023-02-22T04:34:12.758Z,8.88
2023-02-22T04:39:06.035Z,9.63
2023-02-22T04:41:33.385Z,8.65
2023-02-22T04:44:00.001Z,8.38
2023-02-22T04:48:54.403Z,7.55
2023-02-22T04:51:21.035Z,5.78
2023-02-22T04:53:47.542Z,5.63
2023-02-22T04:56:14.134Z,5.75
2023-02-22T05:01:08.266Z,6.05
2023-02-22T05:03:38.082Z,8.73
2023-02-22T05:06:04.759Z,14.65
2023-02-22T05:10:57.699Z,8.02
2023-02-22T05:13:24.177Z,7.82
2023-02-22T05:15:50.722Z,6.93
2023-02-22T05:20:43.890Z,6.90
2023-02-22T05:25:36.964Z,7.97
2023-02-22T05:30:35.222Z,6.85
2023-02-22T05:33:02.759Z,7.50
2023-02-22T05:35:29.442Z,6.60
2023-02-22T05:40:26.374Z,7.88
2023-02-22T05:42:54.094Z,7.75
2023-02-22T05:45:22.937Z,8.18
2023-02-22T05:47:49.446Z,6.43
2023-02-22T05:50:16.312Z,6.47
